sensor_id;sensor_type;location;lat;lon;timestamp;P1;durP1;ratioP1;P2;durP2;ratioP2
43014;SDS011;28637;50.554;7.032;2023-04-24T00:03:28;0.40;;;0.40;;
43014;SDS011;28637;50.554;7.032;2023-04-24T00:08:29;1.25;;;0.60;;
43014;SDS011;28637;50.554;7.032;2023-04-24T00:13:31;0.43;;;0.40;;
43014;SDS011;28637;50.554;7.032;2023-04-24T00:18:31;0.47;;;0.30;;
43014;SDS011;28637;50.554;7.032;2023-04-24T00:23:32;0.57;;;0.40;;
43014;SDS011;28637;50.554;7.032;2023-04-24T00:28:33;1.47;;;0.50;;
43014;SDS011;28637;50.554;7.032;2023-04-24T00:33:35;1.10;;;0.40;;
43014;SDS011;28637;50.554;7.032;2023-04-24T00:38:36;3.67;;;0.40;;
43014;SDS011;28637;50.554;7.032;2023-04-24T00:43:36;0.87;;;0.87;;
43014;SDS011;28637;50.554;7.032;2023-04-24T00:48:40;1.47;;;0.40;;
43014;SDS011;28637;50.554;7.032;2023-04-24T00:53:41;1.23;;;0.52;;
43014;SDS011;28637;50.554;7.032;2023-04-24T00:58:42;0.90;;;0.40;;
43014;SDS011;28637;50.554;7.032;2023-04-24T01:03:46;0.70;;;0.60;;
43014;SDS011;28637;50.554;7.032;2023-04-24T01:08:49;0.60;;;0.50;;
43014;SDS011;28637;50.554;7.032;2023-04-24T01:13:51;1.30;;;0.60;;
43014;SDS011;28637;50.554;7.032;2023-04-24T01:18:52;0.55;;;0.55;;
43014;SDS011;28637;50.554;7.032;2023-04-24T01:23:53;0.77;;;0.77;;
43014;SDS011;28637;50.554;7.032;2023-04-24T01:28:56;3.55;;;1.60;;
43014;SDS011;28637;50.554;7.032;2023-04-24T01:33:57;2.05;;;1.73;;
43014;SDS011;28637;50.554;7.032;2023-04-24T01:38:58;2.37;;;1.60;;
43014;SDS011;28637;50.554;7.032;2023-04-24T01:43:59;1.90;;;1.70;;
43014;SDS011;28637;50.554;7.032;2023-04-24T01:49:00;2.17;;;1.65;;
43014;SDS011;28637;50.554;7.032;2023-04-24T01:54:01;2.63;;;1.73;;
43014;SDS011;28637;50.554;7.032;2023-04-24T01:59:06;2.45;;;2.00;;
43014;SDS011;28637;50.554;7.032;2023-04-24T02:04:09;3.72;;;2.25;;
43014;SDS011;28637;50.554;7.032;2023-04-24T02:09:10;3.10;;;2.40;;
43014;SDS011;28637;50.554;7.032;2023-04-24T02:14:11;2.80;;;2.17;;
43014;SDS011;28637;50.554;7.032;2023-04-24T02:19:11;3.43;;;2.53;;
43014;SDS011;28637;50.554;7.032;2023-04-24T02:24:12;4.20;;;2.65;;
43014;SDS011;28637;50.554;7.032;2023-04-24T02:29:13;3.40;;;2.47;;
43014;SDS011;28637;50.554;7.032;2023-04-24T02:34:13;3.95;;;2.95;;
43014;SDS011;28637;50.554;7.032;2023-04-24T02:39:16;4.22;;;2.83;;
43014;SDS011;28637;50.554;7.032;2023-04-24T02:44:17;4.40;;;3.70;;
43014;SDS011;28637;50.554;7.032;2023-04-24T02:49:17;4.72;;;3.47;;
43014;SDS011;28637;50.554;7.032;2023-04-24T03:00:08;5.40;;;3.83;;
43014;SDS011;28637;50.554;7.032;2023-04-24T03:05:09;5.03;;;3.80;;
43014;SDS011;28637;50.554;7.032;2023-04-24T03:10:11;6.97;;;4.18;;
43014;SDS011;28637;50.554;7.032;2023-04-24T03:15:13;8.50;;;4.00;;
43014;SDS011;28637;50.554;7.032;2023-04-24T03:25:58;8.00;;;4.15;;
43014;SDS011;28637;50.554;7.032;2023-04-24T03:30:59;6.13;;;3.80;;
43014;SDS011;28637;50.554;7.032;2023-04-24T03:36:00;5.63;;;3.93;;
43014;SDS011;28637;50.554;7.032;2023-04-24T03:41:01;6.90;;;4.50;;
43014;SDS011;28637;50.554;7.032;2023-04-24T03:46:03;7.55;;;4.22;;
43014;SDS011;28637;50.554;7.032;2023-04-24T03:51:04;6.65;;;3.97;;
43014;SDS011;28637;50.554;7.032;2023-04-24T03:56:05;5.90;;;4.00;;
43014;SDS011;28637;50.554;7.032;2023-04-24T04:01:06;5.15;;;3.80;;
43014;SDS011;28637;50.554;7.032;2023-04-24T04:06:07;8.20;;;4.00;;
43014;SDS011;28637;50.554;7.032;2023-04-24T04:11:08;6.90;;;4.10;;
43014;SDS011;28637;50.554;7.032;2023-04-24T04:16:09;10.55;;;4.53;;
43014;SDS011;28637;50.554;7.032;2023-04-24T04:21:09;8.20;;;4.35;;
43014;SDS011;28637;50.554;7.032;2023-04-24T04:26:11;6.15;;;4.03;;
43014;SDS011;28637;50.554;7.032;2023-04-24T04:31:15;6.68;;;4.38;;
43014;SDS011;28637;50.554;7.032;2023-04-24T04:36:16;10.00;;;4.13;;
43014;SDS011;28637;50.554;7.032;2023-04-24T04:41:17;7.47;;;4.57;;
43014;SDS011;28637;50.554;7.032;2023-04-24T04:46:18;7.63;;;4.50;;
43014;SDS011;28637;50.554;7.032;2023-04-24T04:51:19;7.32;;;4.57;;
43014;SDS011;28637;50.554;7.032;2023-04-24T04:56:21;8.90;;;4.82;;
43014;SDS011;28637;50.554;7.032;2023-04-24T05:01:22;6.97;;;4.97;;
43014;SDS011;28637;50.554;7.032;2023-04-24T05:06:24;6.97;;;4.35;;
43014;SDS011;28637;50.554;7.032;2023-04-24T05:16:26;8.07;;;4.55;;
43014;SDS011;28637;50.554;7.032;2023-04-24T05:21:27;7.23;;;4.87;;
43014;SDS011;28637;50.554;7.032;2023-04-24T05:32:02;7.03;;;4.65;;
43014;SDS011;28637;50.554;7.032;2023-04-24T05:37:03;8.37;;;4.97;;
43014;SDS011;28637;50.554;7.032;2023-04-24T05:42:08;7.75;;;5.00;;
43014;SDS011;28637;50.554;7.032;2023-04-24T05:47:08;9.27;;;5.30;;
43014;SDS011;28637;50.554;7.032;2023-04-24T05:52:09;8.63;;;5.30;;
43014;SDS011;28637;50.554;7.032;2023-04-24T05:57:10;8.07;;;5.15;;
43014;SDS011;28637;50.554;7.032;2023-04-24T06:02:10;7.60;;;5.35;;
43014;SDS011;28637;50.554;7.032;2023-04-24T06:07:11;10.90;;;5.70;;
43014;SDS011;28637;50.554;7.032;2023-04-24T06:12:12;8.10;;;5.80;;
43014;SDS011;28637;50.554;7.032;2023-04-24T06:17:12;7.90;;;5.43;;
43014;SDS011;28637;50.554;7.032;2023-04-24T06:22:13;8.87;;;5.83;;
43014;SDS011;28637;50.554;7.032;2023-04-24T06:27:14;10.75;;;5.72;;
43014;SDS011;28637;50.554;7.032;2023-04-24T06:32:14;9.38;;;5.30;;
43014;SDS011;28637;50.554;7.032;2023-04-24T06:37:15;7.35;;;5.60;;
43014;SDS011;28637;50.554;7.032;2023-04-24T06:42:16;9.63;;;5.53;;
43014;SDS011;28637;50.554;7.032;2023-04-24T06:47:16;8.20;;;5.47;;
43014;SDS011;28637;50.554;7.032;2023-04-24T06:52:18;7.57;;;4.95;;
43014;SDS011;28637;50.554;7.032;2023-04-24T06:57:19;6.73;;;4.77;;
43014;SDS011;28637;50.554;7.032;2023-04-24T07:02:20;7.27;;;4.90;;
43014;SDS011;28637;50.554;7.032;2023-04-24T07:07:21;6.43;;;4.30;;
43014;SDS011;28637;50.554;7.032;2023-04-24T07:12:23;5.63;;;3.40;;
43014;SDS011;28637;50.554;7.032;2023-04-24T07:17:24;5.73;;;3.40;;
43014;SDS011;28637;50.554;7.032;2023-04-24T07:22:24;4.63;;;3.22;;
43014;SDS011;28637;50.554;7.032;2023-04-24T07:27:25;5.07;;;3.23;;
43014;SDS011;28637;50.554;7.032;2023-04-24T07:32:26;6.30;;;3.13;;
43014;SDS011;28637;50.554;7.032;2023-04-24T07:37:26;4.83;;;2.90;;
43014;SDS011;28637;50.554;7.032;2023-04-24T07:42:28;3.15;;;2.35;;
43014;SDS011;28637;50.554;7.032;2023-04-24T07:52:31;2.92;;;2.25;;
43014;SDS011;28637;50.554;7.032;2023-04-24T07:57:31;3.20;;;2.40;;
43014;SDS011;28637;50.554;7.032;2023-04-24T08:02:32;2.67;;;2.00;;
43014;SDS011;28637;50.554;7.032;2023-04-24T08:07:33;2.35;;;2.15;;
43014;SDS011;28637;50.554;7.032;2023-04-24T08:17:36;1.55;;;1.10;;
43014;SDS011;28637;50.554;7.032;2023-04-24T08:22:36;1.40;;;0.80;;
43014;SDS011;28637;50.554;7.032;2023-04-24T08:27:37;0.30;;;0.30;;
43014;SDS011;28637;50.554;7.032;2023-04-24T08:32:39;0.53;;;0.50;;
43014;SDS011;28637;50.554;7.032;2023-04-24T08:37:40;0.97;;;0.50;;
43014;SDS011;28637;50.554;7.032;2023-04-24T08:42:44;0.47;;;0.47;;
43014;SDS011;28637;50.554;7.032;2023-04-24T08:47:44;0.60;;;0.60;;
43014;SDS011;28637;50.554;7.032;2023-04-24T08:52:46;0.43;;;0.43;;
43014;SDS011;28637;50.554;7.032;2023-04-24T08:57:52;0.43;;;0.43;;
43014;SDS011;28637;50.554;7.032;2023-04-24T09:02:54;0.50;;;0.50;;
43014;SDS011;28637;50.554;7.032;2023-04-24T09:12:57;0.50;;;0.50;;
43014;SDS011;28637;50.554;7.032;2023-04-24T09:18:01;0.65;;;0.60;;
43014;SDS011;28637;50.554;7.032;2023-04-24T09:23:02;0.93;;;0.60;;
43014;SDS011;28637;50.554;7.032;2023-04-24T09:28:03;0.90;;;0.90;;
43014;SDS011;28637;50.554;7.032;2023-04-24T09:33:12;0.50;;;0.50;;
43014;SDS011;28637;50.554;7.032;2023-04-24T09:38:16;1.48;;;0.80;;
43014;SDS011;28637;50.554;7.032;2023-04-24T09:43:16;2.17;;;1.07;;
43014;SDS011;28637;50.554;7.032;2023-04-24T09:48:17;1.10;;;0.90;;
43014;SDS011;28637;50.554;7.032;2023-04-24T09:53:18;2.08;;;1.40;;
43014;SDS011;28637;50.554;7.032;2023-04-24T09:58:25;2.75;;;1.40;;
43014;SDS011;28637;50.554;7.032;2023-04-24T10:03:32;1.75;;;1.60;;
43014;SDS011;28637;50.554;7.032;2023-04-24T10:08:34;2.63;;;1.80;;
43014;SDS011;28637;50.554;7.032;2023-04-24T10:13:35;3.22;;;2.00;;
43014;SDS011;28637;50.554;7.032;2023-04-24T10:18:36;2.20;;;1.90;;
43014;SDS011;28637;50.554;7.032;2023-04-24T10:23:38;3.72;;;1.90;;
43014;SDS011;28637;50.554;7.032;2023-04-24T10:28:41;2.90;;;1.90;;
43014;SDS011;28637;50.554;7.032;2023-04-24T10:33:44;3.45;;;2.00;;
43014;SDS011;28637;50.554;7.032;2023-04-24T10:44:03;3.33;;;1.80;;
43014;SDS011;28637;50.554;7.032;2023-04-24T10:49:06;3.05;;;1.77;;
43014;SDS011;28637;50.554;7.032;2023-04-24T10:59:25;3.22;;;1.70;;
43014;SDS011;28637;50.554;7.032;2023-04-24T11:04:34;2.50;;;1.75;;
43014;SDS011;28637;50.554;7.032;2023-04-24T11:09:35;3.90;;;2.47;;
43014;SDS011;28637;50.554;7.032;2023-04-24T11:20:06;3.78;;;2.85;;
43014;SDS011;28637;50.554;7.032;2023-04-24T11:25:09;5.28;;;3.20;;
43014;SDS011;28637;50.554;7.032;2023-04-24T11:30:11;5.43;;;3.15;;
43014;SDS011;28637;50.554;7.032;2023-04-24T11:35:20;4.70;;;2.63;;
43014;SDS011;28637;50.554;7.032;2023-04-24T11:40:24;4.38;;;2.75;;
43014;SDS011;28637;50.554;7.032;2023-04-24T11:45:28;3.80;;;2.72;;
43014;SDS011;28637;50.554;7.032;2023-04-24T11:50:30;5.82;;;3.05;;
43014;SDS011;28637;50.554;7.032;2023-04-24T11:55:31;5.30;;;3.13;;
43014;SDS011;28637;50.554;7.032;2023-04-24T12:00:31;4.70;;;3.33;;
43014;SDS011;28637;50.554;7.032;2023-04-24T12:05:35;4.70;;;3.72;;
43014;SDS011;28637;50.554;7.032;2023-04-24T12:10:37;7.47;;;4.47;;
43014;SDS011;28637;50.554;7.032;2023-04-24T12:15:39;7.43;;;4.67;;
43014;SDS011;28637;50.554;7.032;2023-04-24T12:20:40;9.48;;;5.10;;
43014;SDS011;28637;50.554;7.032;2023-04-24T12:25:41;11.37;;;6.97;;
43014;SDS011;28637;50.554;7.032;2023-04-24T12:30:46;9.57;;;6.30;;
43014;SDS011;28637;50.554;7.032;2023-04-24T12:35:51;13.30;;;8.18;;
43014;SDS011;28637;50.554;7.032;2023-04-24T12:41:05;8.07;;;5.28;;
43014;SDS011;28637;50.554;7.032;2023-04-24T12:46:11;7.85;;;4.28;;
43014;SDS011;28637;50.554;7.032;2023-04-24T12:51:11;7.00;;;4.60;;
43014;SDS011;28637;50.554;7.032;2023-04-24T12:56:12;6.27;;;4.20;;
43014;SDS011;28637;50.554;7.032;2023-04-24T13:01:12;7.40;;;4.03;;
43014;SDS011;28637;50.554;7.032;2023-04-24T13:06:13;8.07;;;3.93;;
43014;SDS011;28637;50.554;7.032;2023-04-24T13:11:14;5.40;;;3.70;;
43014;SDS011;28637;50.554;7.032;2023-04-24T13:16:15;4.63;;;3.77;;
43014;SDS011;28637;50.554;7.032;2023-04-24T13:21:15;6.50;;;3.90;;
43014;SDS011;28637;50.554;7.032;2023-04-24T13:26:16;5.87;;;3.90;;
43014;SDS011;28637;50.554;7.032;2023-04-24T13:31:17;6.20;;;4.23;;
43014;SDS011;28637;50.554;7.032;2023-04-24T13:36:17;7.47;;;4.13;;
43014;SDS011;28637;50.554;7.032;2023-04-24T13:41:18;8.70;;;4.17;;
43014;SDS011;28637;50.554;7.032;2023-04-24T13:46:19;6.53;;;4.07;;
43014;SDS011;28637;50.554;7.032;2023-04-24T13:51:20;8.93;;;4.97;;
43014;SDS011;28637;50.554;7.032;2023-04-24T13:56:21;7.60;;;4.23;;
43014;SDS011;28637;50.554;7.032;2023-04-24T14:01:22;8.00;;;4.00;;
43014;SDS011;28637;50.554;7.032;2023-04-24T14:06:24;7.43;;;4.10;;
43014;SDS011;28637;50.554;7.032;2023-04-24T14:11:25;6.43;;;3.90;;
43014;SDS011;28637;50.554;7.032;2023-04-24T14:16:26;5.90;;;4.33;;
43014;SDS011;28637;50.554;7.032;2023-04-24T14:21:28;5.97;;;4.18;;
43014;SDS011;28637;50.554;7.032;2023-04-24T14:26:29;5.30;;;3.77;;
43014;SDS011;28637;50.554;7.032;2023-04-24T14:31:29;7.80;;;3.80;;
43014;SDS011;28637;50.554;7.032;2023-04-24T14:36:30;8.57;;;4.50;;
43014;SDS011;28637;50.554;7.032;2023-04-24T14:41:31;8.30;;;4.40;;
43014;SDS011;28637;50.554;7.032;2023-04-24T14:46:35;5.93;;;4.13;;
43014;SDS011;28637;50.554;7.032;2023-04-24T14:51:36;5.60;;;4.33;;
43014;SDS011;28637;50.554;7.032;2023-04-24T14:56:37;7.33;;;4.27;;
43014;SDS011;28637;50.554;7.032;2023-04-24T15:01:39;6.22;;;4.35;;
43014;SDS011;28637;50.554;7.032;2023-04-24T15:06:40;7.80;;;4.87;;
43014;SDS011;28637;50.554;7.032;2023-04-24T15:11:40;6.70;;;4.60;;
43014;SDS011;28637;50.554;7.032;2023-04-24T15:16:41;8.60;;;5.20;;
43014;SDS011;28637;50.554;7.032;2023-04-24T15:21:42;7.97;;;4.80;;
43014;SDS011;28637;50.554;7.032;2023-04-24T15:26:44;6.55;;;4.80;;
43014;SDS011;28637;50.554;7.032;2023-04-24T15:31:44;5.87;;;4.40;;
43014;SDS011;28637;50.554;7.032;2023-04-24T15:36:45;6.07;;;4.60;;
43014;SDS011;28637;50.554;7.032;2023-04-24T15:41:46;7.57;;;5.10;;
43014;SDS011;28637;50.554;7.032;2023-04-24T15:46:46;6.27;;;4.60;;
43014;SDS011;28637;50.554;7.032;2023-04-24T15:51:47;6.83;;;4.87;;
43014;SDS011;28637;50.554;7.032;2023-04-24T15:56:49;7.23;;;4.50;;
43014;SDS011;28637;50.554;7.032;2023-04-24T16:01:50;7.78;;;4.78;;
43014;SDS011;28637;50.554;7.032;2023-04-24T16:06:51;8.20;;;4.83;;
43014;SDS011;28637;50.554;7.032;2023-04-24T16:11:52;9.00;;;5.67;;
43014;SDS011;28637;50.554;7.032;2023-04-24T16:16:52;7.80;;;4.87;;
43014;SDS011;28637;50.554;7.032;2023-04-24T16:21:55;7.68;;;5.10;;
43014;SDS011;28637;50.554;7.032;2023-04-24T16:26:56;8.77;;;5.25;;
43014;SDS011;28637;50.554;7.032;2023-04-24T16:31:57;9.57;;;4.97;;
43014;SDS011;28637;50.554;7.032;2023-04-24T16:36:58;7.33;;;4.67;;
43014;SDS011;28637;50.554;7.032;2023-04-24T16:41:58;9.50;;;4.87;;
43014;SDS011;28637;50.554;7.032;2023-04-24T16:52:01;8.05;;;4.75;;
43014;SDS011;28637;50.554;7.032;2023-04-24T16:57:02;7.27;;;5.50;;
43014;SDS011;28637;50.554;7.032;2023-04-24T17:02:03;11.40;;;7.97;;
43014;SDS011;28637;50.554;7.032;2023-04-24T17:07:04;13.17;;;8.97;;
43014;SDS011;28637;50.554;7.032;2023-04-24T17:12:04;8.47;;;5.63;;
43014;SDS011;28637;50.554;7.032;2023-04-24T17:17:06;11.20;;;5.90;;
43014;SDS011;28637;50.554;7.032;2023-04-24T17:22:07;9.50;;;6.10;;
43014;SDS011;28637;50.554;7.032;2023-04-24T17:27:07;10.70;;;5.70;;
43014;SDS011;28637;50.554;7.032;2023-04-24T17:32:09;10.43;;;6.40;;
43014;SDS011;28637;50.554;7.032;2023-04-24T17:37:10;9.83;;;6.00;;
43014;SDS011;28637;50.554;7.032;2023-04-24T17:42:10;10.37;;;6.53;;
43014;SDS011;28637;50.554;7.032;2023-04-24T17:47:11;11.10;;;6.10;;
43014;SDS011;28637;50.554;7.032;2023-04-24T17:52:12;8.63;;;5.47;;
43014;SDS011;28637;50.554;7.032;2023-04-24T17:57:14;9.80;;;5.40;;
43014;SDS011;28637;50.554;7.032;2023-04-24T18:02:15;9.50;;;6.20;;
43014;SDS011;28637;50.554;7.032;2023-04-24T18:07:16;10.00;;;5.67;;
43014;SDS011;28637;50.554;7.032;2023-04-24T18:12:16;8.23;;;5.43;;
43014;SDS011;28637;50.554;7.032;2023-04-24T18:17:17;7.03;;;5.40;;
43014;SDS011;28637;50.554;7.032;2023-04-24T18:22:17;7.77;;;5.33;;
43014;SDS011;28637;50.554;7.032;2023-04-24T18:27:18;8.57;;;5.07;;
43014;SDS011;28637;50.554;7.032;2023-04-24T18:32:18;7.87;;;4.97;;
43014;SDS011;28637;50.554;7.032;2023-04-24T18:37:19;8.03;;;5.53;;
43014;SDS011;28637;50.554;7.032;2023-04-24T18:42:20;8.47;;;5.73;;
43014;SDS011;28637;50.554;7.032;2023-04-24T18:47:21;8.17;;;5.43;;
43014;SDS011;28637;50.554;7.032;2023-04-24T18:52:22;8.60;;;5.40;;
43014;SDS011;28637;50.554;7.032;2023-04-24T18:57:23;8.25;;;5.60;;
43014;SDS011;28637;50.554;7.032;2023-04-24T19:02:24;9.77;;;6.07;;
43014;SDS011;28637;50.554;7.032;2023-04-24T19:07:25;12.60;;;6.50;;
43014;SDS011;28637;50.554;7.032;2023-04-24T19:12:25;9.47;;;5.90;;
43014;SDS011;28637;50.554;7.032;2023-04-24T19:17:26;7.00;;;5.43;;
43014;SDS011;28637;50.554;7.032;2023-04-24T19:22:27;8.70;;;5.60;;
43014;SDS011;28637;50.554;7.032;2023-04-24T19:27:29;9.30;;;5.13;;
43014;SDS011;28637;50.554;7.032;2023-04-24T19:32:29;9.50;;;4.63;;
43014;SDS011;28637;50.554;7.032;2023-04-24T19:37:30;7.10;;;4.33;;
43014;SDS011;28637;50.554;7.032;2023-04-24T19:42:33;6.90;;;4.18;;
43014;SDS011;28637;50.554;7.032;2023-04-24T19:47:33;9.30;;;4.90;;
43014;SDS011;28637;50.554;7.032;2023-04-24T19:52:34;7.00;;;5.17;;
43014;SDS011;28637;50.554;7.032;2023-04-24T19:57:35;7.50;;;5.30;;
43014;SDS011;28637;50.554;7.032;2023-04-24T20:02:36;8.53;;;4.77;;
43014;SDS011;28637;50.554;7.032;2023-04-24T20:07:36;27.53;;;14.63;;
43014;SDS011;28637;50.554;7.032;2023-04-24T20:12:37;10.23;;;6.97;;
43014;SDS011;28637;50.554;7.032;2023-04-24T20:17:38;23.53;;;18.10;;
43014;SDS011;28637;50.554;7.032;2023-04-24T20:22:38;16.57;;;10.97;;
43014;SDS011;28637;50.554;7.032;2023-04-24T20:27:39;13.87;;;8.60;;
43014;SDS011;28637;50.554;7.032;2023-04-24T20:32:43;11.37;;;8.00;;
43014;SDS011;28637;50.554;7.032;2023-04-24T20:37:44;9.05;;;5.93;;
43014;SDS011;28637;50.554;7.032;2023-04-24T20:42:44;7.80;;;5.27;;
43014;SDS011;28637;50.554;7.032;2023-04-24T20:47:45;9.67;;;5.40;;
43014;SDS011;28637;50.554;7.032;2023-04-24T20:52:46;7.32;;;4.80;;
43014;SDS011;28637;50.554;7.032;2023-04-24T20:57:46;6.83;;;4.30;;
43014;SDS011;28637;50.554;7.032;2023-04-24T21:02:47;7.33;;;4.80;;
43014;SDS011;28637;50.554;7.032;2023-04-24T21:07:48;7.93;;;4.60;;
43014;SDS011;28637;50.554;7.032;2023-04-24T21:12:54;10.85;;;4.43;;
43014;SDS011;28637;50.554;7.032;2023-04-24T21:17:55;7.10;;;4.53;;
43014;SDS011;28637;50.554;7.032;2023-04-24T21:22:56;8.33;;;4.13;;
43014;SDS011;28637;50.554;7.032;2023-04-24T21:27:57;6.43;;;4.60;;
43014;SDS011;28637;50.554;7.032;2023-04-24T21:32:58;7.13;;;4.90;;
43014;SDS011;28637;50.554;7.032;2023-04-24T21:37:59;8.30;;;4.77;;
43014;SDS011;28637;50.554;7.032;2023-04-24T21:42:59;7.50;;;4.93;;
43014;SDS011;28637;50.554;7.032;2023-04-24T21:48:00;7.67;;;4.73;;
43014;SDS011;28637;50.554;7.032;2023-04-24T21:53:01;7.73;;;4.87;;
43014;SDS011;28637;50.554;7.032;2023-04-24T21:58:01;6.90;;;4.70;;
43014;SDS011;28637;50.554;7.032;2023-04-24T22:03:02;8.03;;;4.87;;
43014;SDS011;28637;50.554;7.032;2023-04-24T22:08:03;9.00;;;4.87;;
43014;SDS011;28637;50.554;7.032;2023-04-24T22:13:04;7.57;;;4.47;;
43014;SDS011;28637;50.554;7.032;2023-04-24T22:18:05;7.57;;;5.13;;
43014;SDS011;28637;50.554;7.032;2023-04-24T22:23:05;8.03;;;4.87;;
43014;SDS011;28637;50.554;7.032;2023-04-24T22:28:06;8.35;;;5.03;;
43014;SDS011;28637;50.554;7.032;2023-04-24T22:33:06;7.43;;;4.67;;
43014;SDS011;28637;50.554;7.032;2023-04-24T22:38:07;8.70;;;4.73;;
43014;SDS011;28637;50.554;7.032;2023-04-24T22:43:07;7.20;;;4.83;;
43014;SDS011;28637;50.554;7.032;2023-04-24T22:48:08;6.97;;;5.03;;
43014;SDS011;28637;50.554;7.032;2023-04-24T22:53:09;7.07;;;4.77;;
43014;SDS011;28637;50.554;7.032;2023-04-24T22:58:10;5.73;;;4.30;;
43014;SDS011;28637;50.554;7.032;2023-04-24T23:03:10;8.30;;;4.43;;
43014;SDS011;28637;50.554;7.032;2023-04-24T23:08:11;6.53;;;4.27;;
43014;SDS011;28637;50.554;7.032;2023-04-24T23:13:12;8.13;;;5.17;;
43014;SDS011;28637;50.554;7.032;2023-04-24T23:18:13;7.73;;;4.43;;
43014;SDS011;28637;50.554;7.032;2023-04-24T23:23:13;7.90;;;4.80;;
43014;SDS011;28637;50.554;7.032;2023-04-24T23:28:15;7.75;;;4.85;;
43014;SDS011;28637;50.554;7.032;2023-04-24T23:33:16;9.52;;;4.68;;
43014;SDS011;28637;50.554;7.032;2023-04-24T23:38:16;8.73;;;4.97;;
43014;SDS011;28637;50.554;7.032;2023-04-24T23:43:17;8.18;;;5.00;;
43014;SDS011;28637;50.554;7.032;2023-04-24T23:48:18;7.80;;;5.20;;
43014;SDS011;28637;50.554;7.032;2023-04-24T23:53:18;7.53;;;5.40;;
43014;SDS011;28637;50.554;7.032;2023-04-24T23:58:19;9.18;;;5.28;;
